sensor_id;sensor_type;location;lat;lon;timestamp;P1;durP1;ratioP1;P2;durP2;ratioP2
69414;SDS011;56608;43.530;-5.652;2022-10-17T00:00:22;6.97;;;1.80;;
69414;SDS011;56608;43.530;-5.652;2022-10-17T00:01:23;7.90;;;1.80;;
69414;SDS011;56608;43.530;-5.652;2022-10-17T00:02:24;8.20;;;1.70;;
69414;SDS011;56608;43.530;-5.652;2022-10-17T00:03:26;9.32;;;2.00;;
69414;SDS011;56608;43.530;-5.652;2022-10-17T00:04:28;12.07;;;2.10;;
69414;SDS011;56608;43.530;-5.652;2022-10-17T00:05:29;9.10;;;1.75;;
69414;SDS011;56608;43.530;-5.652;2022-10-17T00:06:31;11.90;;;2.10;;
69414;SDS011;56608;43.530;-5.652;2022-10-17T00:07:35;11.90;;;2.10;;
69414;SDS011;56608;43.530;-5.652;2022-10-17T00:08:37;12.02;;;1.98;;
69414;SDS011;56608;43.530;-5.652;2022-10-17T00:09:41;12.30;;;2.50;;
69414;SDS011;56608;43.530;-5.652;2022-10-17T00:10:43;8.20;;;1.40;;
69414;SDS011;56608;43.530;-5.652;2022-10-17T00:11:45;12.70;;;2.30;;
69414;SDS011;56608;43.530;-5.652;2022-10-17T00:12:49;12.90;;;2.40;;
69414;SDS011;56608;43.530;-5.652;2022-10-17T00:13:53;9.30;;;2.10;;
69414;SDS011;56608;43.530;-5.652;2022-10-17T00:14:55;12.50;;;2.30;;
69414;SDS011;56608;43.530;-5.652;2022-10-17T00:15:57;13.70;;;2.47;;
69414;SDS011;56608;43.530;-5.652;2022-10-17T00:18:00;10.05;;;1.95;;
69414;SDS011;56608;43.530;-5.652;2022-10-17T00:19:04;8.90;;;1.80;;
69414;SDS011;56608;43.530;-5.652;2022-10-17T00:20:07;9.60;;;2.00;;
69414;SDS011;56608;43.530;-5.652;2022-10-17T00:21:15;7.80;;;1.50;;
69414;SDS011;56608;43.530;-5.652;2022-10-17T00:22:18;8.00;;;1.60;;
69414;SDS011;56608;43.530;-5.652;2022-10-17T00:23:21;11.90;;;2.20;;
69414;SDS011;56608;43.530;-5.652;2022-10-17T00:24:22;7.60;;;2.00;;
69414;SDS011;56608;43.530;-5.652;2022-10-17T00:25:23;7.00;;;1.40;;
69414;SDS011;56608;43.530;-5.652;2022-10-17T00:26:25;10.35;;;1.90;;
69414;SDS011;56608;43.530;-5.652;2022-10-17T00:27:28;8.70;;;1.80;;
69414;SDS011;56608;43.530;-5.652;2022-10-17T00:28:30;13.52;;;2.40;;
69414;SDS011;56608;43.530;-5.652;2022-10-17T00:29:31;8.90;;;1.80;;
69414;SDS011;56608;43.530;-5.652;2022-10-17T00:30:32;8.10;;;1.60;;
69414;SDS011;56608;43.530;-5.652;2022-10-17T00:31:33;13.45;;;2.00;;
69414;SDS011;56608;43.530;-5.652;2022-10-17T00:32:34;7.20;;;1.80;;
69414;SDS011;56608;43.530;-5.652;2022-10-17T00:33:36;9.30;;;2.10;;
69414;SDS011;56608;43.530;-5.652;2022-10-17T00:34:37;7.00;;;1.65;;
69414;SDS011;56608;43.530;-5.652;2022-10-17T00:35:39;9.20;;;1.70;;
69414;SDS011;56608;43.530;-5.652;2022-10-17T00:36:41;8.20;;;1.70;;
69414;SDS011;56608;43.530;-5.652;2022-10-17T00:37:43;10.40;;;1.70;;
69414;SDS011;56608;43.530;-5.652;2022-10-17T00:38:46;9.05;;;2.05;;
69414;SDS011;56608;43.530;-5.652;2022-10-17T00:39:49;9.10;;;2.00;;
69414;SDS011;56608;43.530;-5.652;2022-10-17T00:40:51;13.80;;;1.90;;
69414;SDS011;56608;43.530;-5.652;2022-10-17T00:41:52;9.97;;;2.33;;
69414;SDS011;56608;43.530;-5.652;2022-10-17T00:42:54;6.68;;;1.55;;
69414;SDS011;56608;43.530;-5.652;2022-10-17T00:44:01;10.35;;;1.95;;
69414;SDS011;56608;43.530;-5.652;2022-10-17T00:46:29;7.55;;;1.80;;
69414;SDS011;56608;43.530;-5.652;2022-10-17T00:47:33;12.40;;;2.00;;
69414;SDS011;56608;43.530;-5.652;2022-10-17T00:48:36;8.10;;;1.70;;
69414;SDS011;56608;43.530;-5.652;2022-10-17T00:49:37;8.82;;;2.35;;
69414;SDS011;56608;43.530;-5.652;2022-10-17T00:50:40;9.40;;;1.90;;
69414;SDS011;56608;43.530;-5.652;2022-10-17T00:51:45;8.50;;;1.50;;
69414;SDS011;56608;43.530;-5.652;2022-10-17T00:52:49;9.50;;;2.10;;
69414;SDS011;56608;43.530;-5.652;2022-10-17T00:53:51;6.60;;;1.50;;
69414;SDS011;56608;43.530;-5.652;2022-10-17T00:55:55;9.20;;;2.05;;
69414;SDS011;56608;43.530;-5.652;2022-10-17T00:56:57;6.70;;;1.55;;
69414;SDS011;56608;43.530;-5.652;2022-10-17T00:57:59;6.00;;;1.70;;
69414;SDS011;56608;43.530;-5.652;2022-10-17T00:59:02;9.55;;;2.00;;
69414;SDS011;56608;43.530;-5.652;2022-10-17T01:00:06;10.50;;;1.80;;
69414;SDS011;56608;43.530;-5.652;2022-10-17T01:01:09;10.90;;;1.90;;
69414;SDS011;56608;43.530;-5.652;2022-10-17T01:02:14;8.60;;;1.70;;
69414;SDS011;56608;43.530;-5.652;2022-10-17T01:03:18;8.90;;;2.30;;
69414;SDS011;56608;43.530;-5.652;2022-10-17T01:04:19;5.15;;;1.50;;
69414;SDS011;56608;43.530;-5.652;2022-10-17T01:05:20;8.30;;;1.60;;
69414;SDS011;56608;43.530;-5.652;2022-10-17T01:06:22;8.90;;;1.90;;
69414;SDS011;56608;43.530;-5.652;2022-10-17T01:07:26;8.10;;;1.70;;
69414;SDS011;56608;43.530;-5.652;2022-10-17T01:08:28;9.30;;;1.80;;
69414;SDS011;56608;43.530;-5.652;2022-10-17T01:09:30;6.30;;;1.62;;
69414;SDS011;56608;43.530;-5.652;2022-10-17T01:10:33;8.13;;;1.42;;
69414;SDS011;56608;43.530;-5.652;2022-10-17T01:14:49;8.05;;;1.90;;
69414;SDS011;56608;43.530;-5.652;2022-10-17T01:18:55;7.80;;;1.10;;
69414;SDS011;56608;43.530;-5.652;2022-10-17T01:21:55;4.55;;;1.35;;
69414;SDS011;56608;43.530;-5.652;2022-10-17T01:24:59;6.80;;;1.50;;
69414;SDS011;56608;43.530;-5.652;2022-10-17T01:27:48;4.65;;;1.50;;
69414;SDS011;56608;43.530;-5.652;2022-10-17T01:32:04;7.40;;;1.80;;
69414;SDS011;56608;43.530;-5.652;2022-10-17T01:34:32;13.40;;;1.90;;
69414;SDS011;56608;43.530;-5.652;2022-10-17T01:37:08;6.50;;;1.70;;
69414;SDS011;56608;43.530;-5.652;2022-10-17T01:38:21;5.20;;;1.40;;
69414;SDS011;56608;43.530;-5.652;2022-10-17T01:40:50;7.30;;;1.30;;
69414;SDS011;56608;43.530;-5.652;2022-10-17T01:42:41;5.55;;;1.15;;
69414;SDS011;56608;43.530;-5.652;2022-10-17T01:43:36;7.20;;;1.25;;
69414;SDS011;56608;43.530;-5.652;2022-10-17T01:44:45;5.50;;;1.10;;
69414;SDS011;56608;43.530;-5.652;2022-10-17T01:46:38;5.70;;;1.20;;
69414;SDS011;56608;43.530;-5.652;2022-10-17T01:47:20;3.45;;;1.10;;
69414;SDS011;56608;43.530;-5.652;2022-10-17T01:48:26;8.15;;;1.55;;
69414;SDS011;56608;43.530;-5.652;2022-10-17T01:49:33;5.25;;;1.30;;
69414;SDS011;56608;43.530;-5.652;2022-10-17T01:50:39;6.20;;;1.00;;
69414;SDS011;56608;43.530;-5.652;2022-10-17T01:51:56;6.40;;;1.10;;
69414;SDS011;56608;43.530;-5.652;2022-10-17T01:53:12;5.85;;;1.20;;
69414;SDS011;56608;43.530;-5.652;2022-10-17T01:54:20;3.60;;;1.20;;
69414;SDS011;56608;43.530;-5.652;2022-10-17T01:55:31;6.25;;;1.30;;
69414;SDS011;56608;43.530;-5.652;2022-10-17T01:56:36;7.50;;;1.80;;
69414;SDS011;56608;43.530;-5.652;2022-10-17T01:57:42;7.05;;;1.25;;
69414;SDS011;56608;43.530;-5.652;2022-10-17T01:58:51;9.00;;;1.60;;
69414;SDS011;56608;43.530;-5.652;2022-10-17T01:59:57;6.50;;;1.30;;
69414;SDS011;56608;43.530;-5.652;2022-10-17T02:01:01;6.60;;;1.50;;
69414;SDS011;56608;43.530;-5.652;2022-10-17T02:02:05;7.20;;;1.60;;
69414;SDS011;56608;43.530;-5.652;2022-10-17T02:03:08;6.20;;;1.30;;
69414;SDS011;56608;43.530;-5.652;2022-10-17T02:04:13;8.40;;;1.40;;
69414;SDS011;56608;43.530;-5.652;2022-10-17T02:05:17;7.00;;;1.60;;
69414;SDS011;56608;43.530;-5.652;2022-10-17T02:06:23;5.75;;;1.45;;
69414;SDS011;56608;43.530;-5.652;2022-10-17T02:07:24;9.40;;;1.60;;
69414;SDS011;56608;43.530;-5.652;2022-10-17T02:08:26;6.27;;;1.70;;
69414;SDS011;56608;43.530;-5.652;2022-10-17T02:09:29;9.70;;;2.00;;
69414;SDS011;56608;43.530;-5.652;2022-10-17T02:11:38;6.20;;;1.50;;
69414;SDS011;56608;43.530;-5.652;2022-10-17T02:14:17;7.75;;;1.50;;
69414;SDS011;56608;43.530;-5.652;2022-10-17T02:15:50;4.50;;;1.35;;
69414;SDS011;56608;43.530;-5.652;2022-10-17T02:18:23;10.65;;;1.70;;
69414;SDS011;56608;43.530;-5.652;2022-10-17T02:22:06;7.95;;;1.40;;
69414;SDS011;56608;43.530;-5.652;2022-10-17T02:24:31;7.65;;;1.95;;
69414;SDS011;56608;43.530;-5.652;2022-10-17T02:25:34;5.00;;;1.30;;
69414;SDS011;56608;43.530;-5.652;2022-10-17T02:27:59;8.60;;;1.50;;
69414;SDS011;56608;43.530;-5.652;2022-10-17T02:29:09;6.80;;;1.50;;
69414;SDS011;56608;43.530;-5.652;2022-10-17T02:30:25;6.15;;;1.55;;
69414;SDS011;56608;43.530;-5.652;2022-10-17T02:31:39;7.55;;;1.65;;
69414;SDS011;56608;43.530;-5.652;2022-10-17T02:34:08;5.75;;;1.30;;
69414;SDS011;56608;43.530;-5.652;2022-10-17T02:35:12;6.05;;;1.52;;
69414;SDS011;56608;43.530;-5.652;2022-10-17T02:36:16;6.30;;;1.80;;
69414;SDS011;56608;43.530;-5.652;2022-10-17T02:37:23;10.30;;;2.10;;
69414;SDS011;56608;43.530;-5.652;2022-10-17T02:38:27;9.00;;;1.80;;
69414;SDS011;56608;43.530;-5.652;2022-10-17T02:39:29;6.05;;;1.50;;
69414;SDS011;56608;43.530;-5.652;2022-10-17T02:40:32;8.00;;;2.00;;
69414;SDS011;56608;43.530;-5.652;2022-10-17T02:41:35;5.20;;;1.70;;
69414;SDS011;56608;43.530;-5.652;2022-10-17T02:42:38;6.00;;;1.50;;
69414;SDS011;56608;43.530;-5.652;2022-10-17T02:43:44;7.90;;;1.90;;
69414;SDS011;56608;43.530;-5.652;2022-10-17T02:44:48;6.70;;;1.90;;
69414;SDS011;56608;43.530;-5.652;2022-10-17T02:45:49;8.10;;;1.75;;
69414;SDS011;56608;43.530;-5.652;2022-10-17T02:46:54;6.60;;;1.55;;
69414;SDS011;56608;43.530;-5.652;2022-10-17T02:48:04;8.35;;;1.70;;
69414;SDS011;56608;43.530;-5.652;2022-10-17T02:49:26;8.50;;;1.70;;
69414;SDS011;56608;43.530;-5.652;2022-10-17T02:50:34;6.07;;;1.60;;
69414;SDS011;56608;43.530;-5.652;2022-10-17T02:53:03;10.00;;;1.90;;
69414;SDS011;56608;43.530;-5.652;2022-10-17T02:54:10;7.30;;;1.60;;
69414;SDS011;56608;43.530;-5.652;2022-10-17T02:55:23;9.40;;;1.50;;
69414;SDS011;56608;43.530;-5.652;2022-10-17T02:56:26;8.60;;;1.80;;
69414;SDS011;56608;43.530;-5.652;2022-10-17T02:57:35;5.40;;;1.70;;
69414;SDS011;56608;43.530;-5.652;2022-10-17T02:58:39;7.30;;;1.50;;
69414;SDS011;56608;43.530;-5.652;2022-10-17T02:59:46;8.80;;;2.00;;
69414;SDS011;56608;43.530;-5.652;2022-10-17T03:00:48;7.10;;;1.50;;
69414;SDS011;56608;43.530;-5.652;2022-10-17T03:01:50;7.50;;;1.80;;
69414;SDS011;56608;43.530;-5.652;2022-10-17T03:02:52;9.15;;;1.65;;
69414;SDS011;56608;43.530;-5.652;2022-10-17T03:04:05;6.60;;;1.60;;
69414;SDS011;56608;43.530;-5.652;2022-10-17T03:05:08;4.50;;;1.40;;
69414;SDS011;56608;43.530;-5.652;2022-10-17T03:06:09;7.50;;;1.90;;
69414;SDS011;56608;43.530;-5.652;2022-10-17T03:07:11;7.62;;;1.70;;
69414;SDS011;56608;43.530;-5.652;2022-10-17T03:08:14;7.05;;;1.70;;
69414;SDS011;56608;43.530;-5.652;2022-10-17T03:09:15;4.80;;;1.40;;
69414;SDS011;56608;43.530;-5.652;2022-10-17T03:10:17;8.48;;;1.65;;
69414;SDS011;56608;43.530;-5.652;2022-10-17T03:11:18;5.15;;;1.60;;
69414;SDS011;56608;43.530;-5.652;2022-10-17T03:12:18;7.65;;;1.45;;
69414;SDS011;56608;43.530;-5.652;2022-10-17T03:13:21;12.25;;;2.10;;
69414;SDS011;56608;43.530;-5.652;2022-10-17T03:14:22;10.80;;;1.90;;
69414;SDS011;56608;43.530;-5.652;2022-10-17T03:15:25;6.20;;;1.60;;
69414;SDS011;56608;43.530;-5.652;2022-10-17T03:16:27;9.80;;;2.10;;
69414;SDS011;56608;43.530;-5.652;2022-10-17T03:17:28;8.10;;;1.62;;
69414;SDS011;56608;43.530;-5.652;2022-10-17T03:18:30;6.30;;;1.55;;
69414;SDS011;56608;43.530;-5.652;2022-10-17T03:19:31;7.93;;;1.65;;
69414;SDS011;56608;43.530;-5.652;2022-10-17T03:20:31;6.80;;;1.30;;
69414;SDS011;56608;43.530;-5.652;2022-10-17T03:21:32;4.75;;;1.10;;
69414;SDS011;56608;43.530;-5.652;2022-10-17T03:22:36;7.70;;;1.90;;
69414;SDS011;56608;43.530;-5.652;2022-10-17T03:23:39;8.10;;;1.80;;
69414;SDS011;56608;43.530;-5.652;2022-10-17T03:24:41;8.75;;;1.92;;
69414;SDS011;56608;43.530;-5.652;2022-10-17T03:25:42;3.95;;;0.95;;
69414;SDS011;56608;43.530;-5.652;2022-10-17T03:26:43;7.20;;;1.20;;
69414;SDS011;56608;43.530;-5.652;2022-10-17T03:27:45;6.50;;;1.42;;
69414;SDS011;56608;43.530;-5.652;2022-10-17T03:28:46;6.60;;;1.40;;
69414;SDS011;56608;43.530;-5.652;2022-10-17T03:29:48;7.22;;;1.50;;
69414;SDS011;56608;43.530;-5.652;2022-10-17T03:30:51;5.20;;;1.30;;
69414;SDS011;56608;43.530;-5.652;2022-10-17T03:31:53;5.75;;;1.45;;
69414;SDS011;56608;43.530;-5.652;2022-10-17T03:32:56;11.25;;;1.52;;
69414;SDS011;56608;43.530;-5.652;2022-10-17T03:33:58;6.10;;;1.60;;
69414;SDS011;56608;43.530;-5.652;2022-10-17T03:34:59;6.30;;;1.20;;
69414;SDS011;56608;43.530;-5.652;2022-10-17T03:36:04;5.47;;;1.33;;
69414;SDS011;56608;43.530;-5.652;2022-10-17T03:37:13;9.10;;;1.50;;
69414;SDS011;56608;43.530;-5.652;2022-10-17T03:38:14;4.30;;;1.35;;
69414;SDS011;56608;43.530;-5.652;2022-10-17T03:39:16;8.85;;;1.60;;
69414;SDS011;56608;43.530;-5.652;2022-10-17T03:40:17;7.53;;;1.42;;
69414;SDS011;56608;43.530;-5.652;2022-10-17T03:41:19;13.57;;;1.73;;
69414;SDS011;56608;43.530;-5.652;2022-10-17T03:42:21;6.75;;;1.48;;
69414;SDS011;56608;43.530;-5.652;2022-10-17T03:43:23;5.60;;;1.10;;
69414;SDS011;56608;43.530;-5.652;2022-10-17T03:44:24;6.80;;;1.23;;
69414;SDS011;56608;43.530;-5.652;2022-10-17T03:45:25;10.23;;;1.73;;
69414;SDS011;56608;43.530;-5.652;2022-10-17T03:46:26;9.30;;;1.60;;
69414;SDS011;56608;43.530;-5.652;2022-10-17T03:47:27;8.75;;;1.40;;
69414;SDS011;56608;43.530;-5.652;2022-10-17T03:48:29;8.40;;;1.40;;
69414;SDS011;56608;43.530;-5.652;2022-10-17T03:49:32;9.75;;;1.85;;
69414;SDS011;56608;43.530;-5.652;2022-10-17T03:50:32;10.60;;;1.55;;
69414;SDS011;56608;43.530;-5.652;2022-10-17T03:51:33;7.45;;;1.45;;
69414;SDS011;56608;43.530;-5.652;2022-10-17T03:52:35;7.70;;;1.70;;
69414;SDS011;56608;43.530;-5.652;2022-10-17T03:53:36;9.65;;;1.65;;
69414;SDS011;56608;43.530;-5.652;2022-10-17T03:54:38;8.90;;;1.80;;
69414;SDS011;56608;43.530;-5.652;2022-10-17T03:55:41;6.70;;;1.20;;
69414;SDS011;56608;43.530;-5.652;2022-10-17T03:56:42;7.53;;;1.73;;
69414;SDS011;56608;43.530;-5.652;2022-10-17T03:57:44;9.18;;;1.45;;
69414;SDS011;56608;43.530;-5.652;2022-10-17T03:58:44;6.95;;;1.40;;
69414;SDS011;56608;43.530;-5.652;2022-10-17T03:59:45;6.25;;;1.35;;
69414;SDS011;56608;43.530;-5.652;2022-10-17T04:00:46;8.55;;;1.65;;
69414;SDS011;56608;43.530;-5.652;2022-10-17T04:01:46;9.25;;;1.70;;
69414;SDS011;56608;43.530;-5.652;2022-10-17T04:02:48;10.00;;;1.60;;
69414;SDS011;56608;43.530;-5.652;2022-10-17T04:03:51;7.97;;;1.73;;
69414;SDS011;56608;43.530;-5.652;2022-10-17T04:04:53;9.25;;;1.55;;
69414;SDS011;56608;43.530;-5.652;2022-10-17T04:05:57;9.90;;;1.90;;
69414;SDS011;56608;43.530;-5.652;2022-10-17T04:06:59;6.55;;;1.40;;
69414;SDS011;56608;43.530;-5.652;2022-10-17T04:07:59;6.20;;;1.25;;
69414;SDS011;56608;43.530;-5.652;2022-10-17T04:08:59;6.60;;;1.50;;
69414;SDS011;56608;43.530;-5.652;2022-10-17T04:10:02;7.30;;;1.70;;
69414;SDS011;56608;43.530;-5.652;2022-10-17T04:11:05;5.80;;;1.40;;
69414;SDS011;56608;43.530;-5.652;2022-10-17T04:12:07;6.15;;;1.45;;
69414;SDS011;56608;43.530;-5.652;2022-10-17T04:13:08;7.25;;;1.70;;
69414;SDS011;56608;43.530;-5.652;2022-10-17T04:14:09;6.40;;;1.50;;
69414;SDS011;56608;43.530;-5.652;2022-10-17T04:16:12;6.10;;;1.60;;
69414;SDS011;56608;43.530;-5.652;2022-10-17T04:17:15;11.30;;;2.00;;
69414;SDS011;56608;43.530;-5.652;2022-10-17T04:18:18;5.10;;;1.70;;
69414;SDS011;56608;43.530;-5.652;2022-10-17T04:19:20;8.35;;;2.08;;
69414;SDS011;56608;43.530;-5.652;2022-10-17T04:20:21;9.80;;;1.80;;
69414;SDS011;56608;43.530;-5.652;2022-10-17T04:21:23;6.95;;;1.55;;
69414;SDS011;56608;43.530;-5.652;2022-10-17T04:22:24;8.75;;;1.80;;
69414;SDS011;56608;43.530;-5.652;2022-10-17T04:23:26;10.20;;;1.90;;
69414;SDS011;56608;43.530;-5.652;2022-10-17T04:24:29;6.80;;;1.90;;
69414;SDS011;56608;43.530;-5.652;2022-10-17T04:25:29;6.95;;;1.70;;
69414;SDS011;56608;43.530;-5.652;2022-10-17T04:26:32;7.50;;;1.90;;
69414;SDS011;56608;43.530;-5.652;2022-10-17T04:27:32;4.70;;;1.60;;
69414;SDS011;56608;43.530;-5.652;2022-10-17T04:28:33;9.75;;;1.85;;
69414;SDS011;56608;43.530;-5.652;2022-10-17T04:29:33;5.20;;;1.50;;
69414;SDS011;56608;43.530;-5.652;2022-10-17T04:30:35;7.40;;;1.80;;
69414;SDS011;56608;43.530;-5.652;2022-10-17T04:31:36;7.07;;;2.22;;
69414;SDS011;56608;43.530;-5.652;2022-10-17T04:32:37;6.35;;;1.65;;
69414;SDS011;56608;43.530;-5.652;2022-10-17T04:33:41;7.70;;;1.80;;
69414;SDS011;56608;43.530;-5.652;2022-10-17T04:34:43;8.10;;;1.80;;
69414;SDS011;56608;43.530;-5.652;2022-10-17T04:35:57;6.75;;;1.85;;
69414;SDS011;56608;43.530;-5.652;2022-10-17T04:37:01;5.70;;;1.85;;
69414;SDS011;56608;43.530;-5.652;2022-10-17T04:38:02;8.40;;;2.20;;
69414;SDS011;56608;43.530;-5.652;2022-10-17T04:39:03;8.55;;;1.90;;
69414;SDS011;56608;43.530;-5.652;2022-10-17T04:40:06;7.80;;;1.60;;
69414;SDS011;56608;43.530;-5.652;2022-10-17T04:41:12;3.50;;;1.15;;
69414;SDS011;56608;43.530;-5.652;2022-10-17T04:42:13;7.60;;;1.85;;
69414;SDS011;56608;43.530;-5.652;2022-10-17T04:43:14;8.00;;;1.60;;
69414;SDS011;56608;43.530;-5.652;2022-10-17T04:44:15;8.25;;;2.10;;
69414;SDS011;56608;43.530;-5.652;2022-10-17T04:45:18;4.90;;;1.40;;
69414;SDS011;56608;43.530;-5.652;2022-10-17T04:46:19;5.35;;;1.30;;
69414;SDS011;56608;43.530;-5.652;2022-10-17T04:47:20;7.50;;;1.70;;
69414;SDS011;56608;43.530;-5.652;2022-10-17T04:48:22;5.43;;;1.48;;
69414;SDS011;56608;43.530;-5.652;2022-10-17T04:49:23;8.48;;;2.28;;
69414;SDS011;56608;43.530;-5.652;2022-10-17T04:50:24;6.85;;;1.73;;
69414;SDS011;56608;43.530;-5.652;2022-10-17T04:51:26;9.73;;;1.83;;
69414;SDS011;56608;43.530;-5.652;2022-10-17T04:52:27;10.13;;;1.95;;
69414;SDS011;56608;43.530;-5.652;2022-10-17T04:53:31;11.55;;;1.80;;
69414;SDS011;56608;43.530;-5.652;2022-10-17T04:54:34;9.20;;;1.50;;
69414;SDS011;56608;43.530;-5.652;2022-10-17T04:55:36;7.60;;;1.50;;
69414;SDS011;56608;43.530;-5.652;2022-10-17T04:56:37;11.15;;;2.05;;
69414;SDS011;56608;43.530;-5.652;2022-10-17T04:57:40;8.20;;;1.60;;
69414;SDS011;56608;43.530;-5.652;2022-10-17T04:58:41;9.30;;;1.85;;
69414;SDS011;56608;43.530;-5.652;2022-10-17T04:59:42;6.05;;;1.55;;
69414;SDS011;56608;43.530;-5.652;2022-10-17T05:00:43;6.90;;;1.65;;
69414;SDS011;56608;43.530;-5.652;2022-10-17T05:01:44;9.10;;;2.00;;
69414;SDS011;56608;43.530;-5.652;2022-10-17T05:02:48;6.75;;;1.50;;
69414;SDS011;56608;43.530;-5.652;2022-10-17T05:03:50;8.95;;;1.70;;
69414;SDS011;56608;43.530;-5.652;2022-10-17T05:04:51;12.25;;;2.15;;
69414;SDS011;56608;43.530;-5.652;2022-10-17T05:05:51;7.45;;;1.80;;
69414;SDS011;56608;43.530;-5.652;2022-10-17T05:06:53;12.90;;;2.10;;
69414;SDS011;56608;43.530;-5.652;2022-10-17T05:07:54;7.87;;;1.40;;
69414;SDS011;56608;43.530;-5.652;2022-10-17T05:08:56;8.18;;;1.60;;
69414;SDS011;56608;43.530;-5.652;2022-10-17T05:09:58;8.00;;;1.80;;
69414;SDS011;56608;43.530;-5.652;2022-10-17T05:11:00;6.05;;;1.30;;
69414;SDS011;56608;43.530;-5.652;2022-10-17T05:12:03;9.45;;;1.65;;
69414;SDS011;56608;43.530;-5.652;2022-10-17T05:13:04;8.80;;;1.70;;
69414;SDS011;56608;43.530;-5.652;2022-10-17T05:14:08;10.50;;;2.30;;
69414;SDS011;56608;43.530;-5.652;2022-10-17T05:15:10;6.13;;;1.53;;
69414;SDS011;56608;43.530;-5.652;2022-10-17T05:16:11;9.20;;;1.45;;
69414;SDS011;56608;43.530;-5.652;2022-10-17T05:17:12;8.35;;;1.60;;
69414;SDS011;56608;43.530;-5.652;2022-10-17T05:18:14;7.85;;;1.45;;
69414;SDS011;56608;43.530;-5.652;2022-10-17T05:19:15;9.40;;;1.80;;
69414;SDS011;56608;43.530;-5.652;2022-10-17T05:20:17;5.80;;;1.15;;
69414;SDS011;56608;43.530;-5.652;2022-10-17T05:21:18;9.00;;;1.65;;
69414;SDS011;56608;43.530;-5.652;2022-10-17T05:22:20;6.40;;;1.40;;
69414;SDS011;56608;43.530;-5.652;2022-10-17T05:23:21;5.80;;;1.25;;
69414;SDS011;56608;43.530;-5.652;2022-10-17T05:24:24;7.55;;;1.70;;
69414;SDS011;56608;43.530;-5.652;2022-10-17T05:25:25;11.90;;;2.10;;
69414;SDS011;56608;43.530;-5.652;2022-10-17T05:26:27;11.18;;;1.55;;
69414;SDS011;56608;43.530;-5.652;2022-10-17T05:27:28;5.95;;;1.35;;
69414;SDS011;56608;43.530;-5.652;2022-10-17T05:28:29;7.47;;;1.60;;
69414;SDS011;56608;43.530;-5.652;2022-10-17T05:29:33;10.75;;;1.35;;
69414;SDS011;56608;43.530;-5.652;2022-10-17T05:30:34;13.75;;;2.15;;
69414;SDS011;56608;43.530;-5.652;2022-10-17T05:31:35;9.55;;;1.80;;
69414;SDS011;56608;43.530;-5.652;2022-10-17T05:32:35;7.60;;;1.25;;
69414;SDS011;56608;43.530;-5.652;2022-10-17T05:33:39;7.60;;;1.30;;
69414;SDS011;56608;43.530;-5.652;2022-10-17T05:34:40;8.68;;;1.58;;
69414;SDS011;56608;43.530;-5.652;2022-10-17T05:35:41;8.45;;;1.55;;
69414;SDS011;56608;43.530;-5.652;2022-10-17T05:36:42;11.00;;;1.85;;
69414;SDS011;56608;43.530;-5.652;2022-10-17T05:37:43;9.90;;;1.90;;
69414;SDS011;56608;43.530;-5.652;2022-10-17T05:38:48;8.43;;;1.77;;
69414;SDS011;56608;43.530;-5.652;2022-10-17T05:39:51;10.85;;;2.10;;
69414;SDS011;56608;43.530;-5.652;2022-10-17T05:40:55;6.87;;;1.50;;
69414;SDS011;56608;43.530;-5.652;2022-10-17T05:41:57;8.00;;;1.90;;
69414;SDS011;56608;43.530;-5.652;2022-10-17T05:42:59;8.57;;;1.80;;
69414;SDS011;56608;43.530;-5.652;2022-10-17T05:44:00;6.25;;;1.77;;
69414;SDS011;56608;43.530;-5.652;2022-10-17T05:45:04;8.35;;;1.95;;
69414;SDS011;56608;43.530;-5.652;2022-10-17T05:46:06;9.80;;;2.10;;
69414;SDS011;56608;43.530;-5.652;2022-10-17T05:47:07;8.17;;;2.00;;
69414;SDS011;56608;43.530;-5.652;2022-10-17T05:48:09;13.50;;;2.40;;
69414;SDS011;56608;43.530;-5.652;2022-10-17T05:49:10;9.80;;;2.20;;
69414;SDS011;56608;43.530;-5.652;2022-10-17T05:50:11;10.77;;;2.33;;
69414;SDS011;56608;43.530;-5.652;2022-10-17T05:51:14;13.80;;;2.75;;
69414;SDS011;56608;43.530;-5.652;2022-10-17T05:52:15;8.40;;;2.30;;
69414;SDS011;56608;43.530;-5.652;2022-10-17T05:53:17;8.93;;;2.05;;
69414;SDS011;56608;43.530;-5.652;2022-10-17T05:54:17;9.90;;;2.30;;
69414;SDS011;56608;43.530;-5.652;2022-10-17T05:55:19;8.60;;;2.20;;
69414;SDS011;56608;43.530;-5.652;2022-10-17T05:56:20;10.38;;;2.35;;
69414;SDS011;56608;43.530;-5.652;2022-10-17T05:57:25;10.77;;;2.60;;
69414;SDS011;56608;43.530;-5.652;2022-10-17T05:58:25;6.20;;;2.10;;
69414;SDS011;56608;43.530;-5.652;2022-10-17T05:59:26;8.65;;;2.10;;
69414;SDS011;56608;43.530;-5.652;2022-10-17T06:00:27;8.15;;;2.15;;
69414;SDS011;56608;43.530;-5.652;2022-10-17T06:01:28;10.20;;;2.40;;
69414;SDS011;56608;43.530;-5.652;2022-10-17T06:02:29;10.70;;;2.60;;
69414;SDS011;56608;43.530;-5.652;2022-10-17T06:03:31;10.65;;;2.70;;
69414;SDS011;56608;43.530;-5.652;2022-10-17T06:04:35;12.30;;;2.60;;
69414;SDS011;56608;43.530;-5.652;2022-10-17T06:05:36;9.40;;;3.00;;
69414;SDS011;56608;43.530;-5.652;2022-10-17T06:06:38;8.70;;;2.90;;
69414;SDS011;56608;43.530;-5.652;2022-10-17T06:07:40;13.00;;;3.10;;
69414;SDS011;56608;43.530;-5.652;2022-10-17T06:09:44;11.95;;;2.60;;
69414;SDS011;56608;43.530;-5.652;2022-10-17T06:10:46;14.43;;;3.70;;
69414;SDS011;56608;43.530;-5.652;2022-10-17T06:11:49;16.20;;;3.00;;
69414;SDS011;56608;43.530;-5.652;2022-10-17T06:12:50;14.85;;;3.40;;
69414;SDS011;56608;43.530;-5.652;2022-10-17T06:13:51;14.70;;;3.63;;
69414;SDS011;56608;43.530;-5.652;2022-10-17T06:14:53;15.27;;;3.62;;
69414;SDS011;56608;43.530;-5.652;2022-10-17T06:15:53;16.90;;;3.90;;
69414;SDS011;56608;43.530;-5.652;2022-10-17T06:16:57;17.10;;;3.90;;
69414;SDS011;56608;43.530;-5.652;2022-10-17T06:17:58;16.20;;;4.00;;
69414;SDS011;56608;43.530;-5.652;2022-10-17T06:18:58;21.10;;;4.30;;
69414;SDS011;56608;43.530;-5.652;2022-10-17T06:20:00;21.60;;;3.90;;
69414;SDS011;56608;43.530;-5.652;2022-10-17T06:21:06;21.05;;;3.90;;
69414;SDS011;56608;43.530;-5.652;2022-10-17T06:22:08;22.10;;;3.85;;
69414;SDS011;56608;43.530;-5.652;2022-10-17T06:23:09;15.90;;;3.55;;
69414;SDS011;56608;43.530;-5.652;2022-10-17T06:24:10;26.15;;;5.30;;
69414;SDS011;56608;43.530;-5.652;2022-10-17T06:25:11;20.15;;;4.30;;
69414;SDS011;56608;43.530;-5.652;2022-10-17T06:26:11;21.15;;;4.40;;
69414;SDS011;56608;43.530;-5.652;2022-10-17T06:27:13;19.30;;;4.90;;
69414;SDS011;56608;43.530;-5.652;2022-10-17T06:28:14;21.12;;;4.45;;
69414;SDS011;56608;43.530;-5.652;2022-10-17T06:29:16;24.30;;;6.45;;
69414;SDS011;56608;43.530;-5.652;2022-10-17T06:31:19;20.20;;;4.85;;
69414;SDS011;56608;43.530;-5.652;2022-10-17T06:32:20;19.20;;;4.25;;
69414;SDS011;56608;43.530;-5.652;2022-10-17T06:33:21;21.80;;;4.00;;
69414;SDS011;56608;43.530;-5.652;2022-10-17T06:34:23;29.10;;;4.50;;
69414;SDS011;56608;43.530;-5.652;2022-10-17T06:35:24;21.40;;;3.80;;
69414;SDS011;56608;43.530;-5.652;2022-10-17T06:36:26;17.50;;;4.20;;
69414;SDS011;56608;43.530;-5.652;2022-10-17T06:37:31;17.15;;;4.10;;
69414;SDS011;56608;43.530;-5.652;2022-10-17T06:38:32;23.95;;;4.40;;
69414;SDS011;56608;43.530;-5.652;2022-10-17T06:39:34;16.20;;;4.05;;
69414;SDS011;56608;43.530;-5.652;2022-10-17T06:40:37;13.90;;;3.60;;
69414;SDS011;56608;43.530;-5.652;2022-10-17T06:41:39;10.43;;;3.17;;
69414;SDS011;56608;43.530;-5.652;2022-10-17T06:42:43;11.40;;;3.75;;
69414;SDS011;56608;43.530;-5.652;2022-10-17T06:43:45;11.50;;;3.60;;
69414;SDS011;56608;43.530;-5.652;2022-10-17T06:44:47;11.60;;;5.00;;
69414;SDS011;56608;43.530;-5.652;2022-10-17T06:45:48;12.45;;;5.60;;
69414;SDS011;56608;43.530;-5.652;2022-10-17T06:46:48;13.00;;;5.90;;
69414;SDS011;56608;43.530;-5.652;2022-10-17T06:47:49;17.95;;;6.15;;
69414;SDS011;56608;43.530;-5.652;2022-10-17T06:48:49;15.55;;;5.60;;
69414;SDS011;56608;43.530;-5.652;2022-10-17T06:49:49;15.20;;;5.45;;
69414;SDS011;56608;43.530;-5.652;2022-10-17T06:50:51;12.80;;;5.30;;